Terminal Aerodrome Forecast
Issued by NWS

Home | Current Version | Previous Version | Text Only | Print | Product List | Glossary On
Versions: 1 2 3 4 5 6 7 8 9 10 11 12 13 14 15
000
FTUS44 KMAF 190500
TAFPEQ
TAF
KPEQ 190530Z 1906/2006 09012KT P6SM SCT010 OVC040
      TEMPO 1906/1910 1SM +TSRA BR BKN015CB
     FM191000 09010KT P6SM OVC025
      TEMPO 1910/1914 3SM TSRA BR OVC010CB
     FM191400 10007KT P6SM OVC030
      TEMPO 1914/1918 3SM TSRA BR OVC015CB
     FM191800 10006KT P6SM OVC040
      TEMPO 1918/1922 5SM TSRA OVC030CB=

USA.gov is the U.S. government's official web portal to all federal, state and local government web resources and services.